Flight Track Log - Related Links

Times and Time Zones

All times are in EDT time to prevent confusion due to time zone crossing. See the FDX1606 flight status page for this flight to view local times or setup timezone preferences in your user account.

Time Position Orientation Groundspeed Altitude Reporting Facility
EDT Latitude Longitude Course Direction KTS MPH feet Rate Location/Type
Wed 11:55:05 PM 41.9640 -87.9280 180° South 2 2  Level FlightAware ADS-B
Wed 11:59:03 PM 41.9630 -87.9280 180° South 2 2 19 Level FlightAware ADS-B
Thu 12:01:00 AM 41.6003 -87.6554 151° Southeast  Level Estimated
Thu 12:02:00 AM 41.4140 -87.5167 151° Southeast  Level Estimated
Thu 12:03:00 AM 41.2275 -87.3789 151° Southeast  Level Estimated
Thu 12:04:00 AM 41.0409 -87.2419 151° Southeast  Level Estimated
Thu 12:05:00 AM 40.8542 -87.1056 151° Southeast  Level Estimated
Thu 12:06:00 AM 40.6672 -86.9701 151° Southeast  Level Estimated
Thu 12:07:00 AM 40.4801 -86.8353 151° Southeast  Level Estimated
Thu 12:08:00 AM 40.2929 -86.7013 151° Southeast  Level Estimated
Thu 12:09:00 AM 40.1055 -86.5681 151° Southeast  Level Estimated
Thu 12:10:00 AM 39.9180 -86.4355 152° Southeast  Level Estimated
Thu 12:11:00 AM 39.7303 -86.3037 152° Southeast  Level Estimated
Thu 12:12:00 AM 39.7173 -86.2947 152° Southeast  Level Estimated
Thu 12:13:00 AM 39.7173 -86.2947 226° Southwest  Level Estimated
Thu 12:14:00 AM 39.7173 -86.2947 226° Southwest  Level Estimated
Thu 12:15:00 AM 39.7173 -86.2947 226° Southwest  Level Estimated
Thu 12:16:00 AM 39.7173 -86.2947 226° Southwest  Level Estimated
Thu 12:17:00 AM 39.7173 -86.2947 226° Southwest  Level Estimated
Thu 12:18:00 AM 39.7173 -86.2947 226° Southwest  Level Estimated
Thu 12:19:00 AM 39.7173 -86.2947 226° Southwest  Level Estimated
Thu 12:20:00 AM 39.7173 -86.2947 226° Southwest  Level Estimated
Thu 12:21:00 AM 39.7173 -86.2947 226° Southwest  Level Estimated
Thu 12:22:00 AM 39.7173 -86.2947 226° Southwest  Level Estimated
Thu 12:23:00 AM 39.7173 -86.2947 226° Southwest  Level Estimated
Thu 12:24:00 AM 39.7173 -86.2947 226° Southwest  Level Estimated
Thu 12:25:00 AM 39.7173 -86.2947 226° Southwest  Level Estimated
Thu 12:26:00 AM 39.7173 -86.2947 226° Southwest  Level Estimated
Thu 12:27:00 AM 39.7173 -86.2947 226° Southwest  Level Estimated
Thu 12:28:00 AM 39.7173 -86.2947 226° Southwest  Level Estimated
Thu 12:29:00 AM 39.7173 -86.2947 226° Southwest  Level Estimated
Thu 12:30:00 AM 39.7173 -86.2947 226° Southwest  Level Estimated
Thu 12:31:00 AM 39.7173 -86.2947 226° Southwest  Level Estimated
Thu 12:32:00 AM 39.7173 -86.2947 226° Southwest  Level Estimated
Thu 12:33:00 AM 39.7173 -86.2947 226° Southwest  Level Estimated
Thu 12:34:00 AM 39.7173 -86.2947 226° Southwest  Level Estimated
Thu 12:35:00 AM 39.7173 -86.2947 226° Southwest  Level Estimated
Thu 12:36:00 AM 39.7173 -86.2947 226° Southwest  Level Estimated
Thu 12:37:00 AM 39.7173 -86.2947 226° Southwest  Level Estimated
Thu 12:38:00 AM 39.7173 -86.2947 226° Southwest  Level Estimated
Thu 12:39:00 AM 39.7173 -86.2947 226° Southwest  Level Estimated
Thu 12:40:00 AM 39.7173 -86.2947 226° Southwest  Level Estimated
Thu 12:41:00 AM 39.7173 -86.2947 226° Southwest  Level Estimated
Thu 12:43:00 AM 41.5857 -87.6439 151° Southeast  Level Estimated
Thu 12:44:00 AM 41.3994 -87.5054 151° Southeast  Level Estimated
Thu 12:44:44 AM 41.9640 -87.9260 151° Southeast 25 29  Level FlightAware ADS-B
Thu 12:45:12 AM 41.9650 -87.9250 37° Northeast 20 23 115 Level FlightAware ADS-B
Thu 12:45:36 AM 41.9660 -87.9250 360° North 25 29 121 Level FlightAware ADS-B
Thu 12:46:07 AM 41.9680 -87.9250 360° North 22 25 126 Level FlightAware ADS-B
Thu 12:48:00 AM 41.6173 -87.6624 151° Southeast  Level Estimated
Thu 12:49:00 AM 41.4309 -87.5242 151° Southeast  Level Estimated
Thu 12:49:35 AM 41.9690 -87.9250 151° Southeast 16 18  Level FlightAware ADS-B
Thu 12:50:03 AM 41.9700 -87.9250 360° North 22 25 232 Level FlightAware ADS-B
Thu 12:50:23 AM 41.9700 -87.9240 90° East 27 31 258 Level FlightAware ADS-B
Thu 12:51:01 AM 41.9700 -87.9210 90° East 28 32 280 Level FlightAware ADS-B
Thu 12:51:38 AM 41.9700 -87.9160 90° East 28 32 333 Level FlightAware ADS-B
Thu 12:52:13 AM 41.9700 -87.9150 90° East 31 36 410 Level FlightAware ADS-B
Thu 12:52:42 AM 41.9700 -87.9110 90° East 33 38 524 Level FlightAware ADS-B
Thu 12:53:49 AM 41.9750 -87.9160 323° Northwest 94 108 680 Level FlightAware ADS-B
Thu 12:54:19 AM 41.9900 -87.9330 320° Northwest 174 200 1,100 2,034 Climbing FlightAware ADS-B
Thu 12:54:48 AM 42.0080 -87.9510 323° Northwest 175 201 2,000 1,562 Climbing FlightAware ADS-B
Thu 12:55:32 AM 42.0250 -87.9690 322° Northwest 161 185 3,000 1,859 Climbing FlightAware ADS-B
Thu 12:55:59 AM 42.0520 -87.9950 324° Northwest 178 205 4,200 1,925 Climbing FlightAware ADS-B
Thu 12:56:25 AM 42.0730 -88.0130 328° Northwest 210 242 4,700 1,171 Climbing FlightAware ADS-B
Thu 12:56:40 AM 42.0840 -88.0230 326° Northwest 224 258 5,000 1,674 Climbing FlightAware ADS-B
Thu 12:57:08 AM 42.1110 -88.0460 328° Northwest 250 288 5,900 2,571 Climbing FlightAware ADS-B
Thu 12:57:36 AM 42.1380 -88.0690 328° Northwest 247 284 7,400 2,943 Climbing FlightAware ADS-B
Thu 12:58:01 AM 42.1620 -88.0890 328° Northwest 251 289 8,500 2,462 Climbing FlightAware ADS-B
Thu 12:58:15 AM 42.1720 -88.1060 308° West 256 295 9,000 2,444 Climbing FlightAware ADS-B
Thu 12:58:28 AM 42.1760 -88.1280 284° West 261 300 9,600 2,586 Climbing FlightAware ADS-B
Thu 12:59:13 AM 42.1690 -88.2040 263° West 278 320 11,500 2,512 Climbing FlightAware ADS-B
Thu 12:59:54 AM 42.1560 -88.2720 256° West 282 325 13,200 2,429 Climbing FlightAware ADS-B
Thu 01:00:37 AM 42.1320 -88.3400 245° Southwest 277 319 14,900 1,765 Climbing FlightAware ADS-B
Thu 01:01:19 AM 42.1090 -88.4090 246° West 303 349 15,700 1,129 Climbing FlightAware ADS-B
Thu 01:02:02 AM 42.0820 -88.4860 245° Southwest 330 380 16,500 1,143 Climbing FlightAware ADS-B
Thu 01:02:43 AM 42.0460 -88.5600 237° Southwest 362 417 17,300 1,271 Climbing FlightAware ADS-B
Thu 01:03:27 AM 41.9920 -88.6330 225° Southwest 377 434 18,300 1,643 Climbing FlightAware ADS-B
Thu 01:04:07 AM 41.9430 -88.6950 223° Southwest 379 436 19,600 1,807 Climbing FlightAware ADS-B
Thu 01:04:50 AM 41.8870 -88.7660 223° Southwest 384 442 20,800 1,395 Climbing FlightAware ADS-B
Thu 01:05:33 AM 41.8300 -88.8380 223° Southwest 399 459 21,600 1,098 Climbing FlightAware ADS-B
Thu 01:06:12 AM 41.7770 -88.9050 223° Southwest 410 472 22,300 1,200 Climbing FlightAware ADS-B
Thu 01:06:58 AM 41.7230 -88.9930 231° Southwest 409 471 23,300 1,256 Climbing FlightAware ADS-B
Thu 01:07:38 AM 41.6840 -89.0840 240° Southwest 418 481 24,100 1,185 Climbing FlightAware ADS-B
Thu 01:08:19 AM 41.6430 -89.1760 239° Southwest 426 490 24,900 1,059 Climbing FlightAware ADS-B
Thu 01:09:03 AM 41.5970 -89.2760 238° Southwest 435 501 25,600 988 Climbing FlightAware ADS-B
Thu 01:09:44 AM 41.5560 -89.3720 240° Southwest 439 505 26,300 929 Climbing FlightAware ADS-B
Thu 01:10:27 AM 41.5110 -89.4770 240° Southwest 450 518 26,900 947 Climbing FlightAware ADS-B
Thu 01:11:38 AM 41.4200 -89.6260 231° Southwest 475 547 28,100 1,135 Climbing FlightAware ADS-B
Thu 01:12:18 AM 41.3320 -89.6640 198° South 481 554 29,000 1,071 Climbing FlightAware ADS-B
Thu 01:13:02 AM 41.2360 -89.6830 188° South 500 575 29,600 857 Climbing FlightAware ADS-B
Thu 01:13:42 AM 41.1450 -89.6570 168° South 507 583 30,200 878 Climbing FlightAware ADS-B
Thu 01:14:24 AM 41.0520 -89.6260 166° South 510 587 30,800 1,200 Climbing FlightAware ADS-B
Thu 01:15:07 AM 40.9600 -89.5570 150° Southeast 499 574 31,900 1,200 Climbing FlightAware ADS-B
Thu 01:15:44 AM 40.9080 -89.4710 129° Southeast 502 578 32,400 857 Climbing FlightAware ADS-B
Thu 01:16:24 AM 40.8690 -89.3600 115° Southeast 501 577 33,000 988 Climbing FlightAware ADS-B
Thu 01:17:09 AM 40.8270 -89.2340 114° Southeast 499 574 33,800 1,000 Climbing FlightAware ADS-B
Thu 01:17:48 AM 40.7920 -89.1290 114° Southeast 493 567 34,400 911 Climbing FlightAware ADS-B
Thu 01:18:28 AM 40.7550 -89.0170 114° Southeast 488 562 35,000 419 Climbing FlightAware ADS-B
Thu 01:19:14 AM 40.7130 -88.8920 114° Southeast 489 563 35,000  Level FlightAware ADS-B
Thu 01:19:53 AM 40.6760 -88.7860 115° Southeast 489 563 35,000 -148 Level FlightAware ADS-B
Thu 01:20:35 AM 40.6370 -88.6720 114° Southeast 488 562 34,800 -918 Descending FlightAware ADS-B
Thu 01:21:18 AM 40.5970 -88.5540 114° Southeast 492 566 33,700 -1,931 Descending FlightAware ADS-B
Thu 01:22:02 AM 40.5550 -88.4340 115° Southeast 491 565 32,000 -2,313 Descending FlightAware ADS-B
Thu 01:22:41 AM 40.5090 -88.3340 121° Southeast 480 552 30,500 -2,143 Descending FlightAware ADS-B
Thu 01:23:26 AM 40.4520 -88.2320 126° Southeast 470 541 29,000 -2,118 Descending FlightAware ADS-B
Thu 01:24:06 AM 40.3960 -88.1430 130° Southeast 475 547 27,500 -2,148 Descending FlightAware ADS-B
Thu 01:24:47 AM 40.3390 -88.0510 129° Southeast 477 549 26,100 -2,160 Descending FlightAware ADS-B
Thu 01:25:46 AM 40.2620 -87.9130 126° Southeast 479 551 23,900 -2,220 Descending FlightAware ADS-B
Thu 01:26:27 AM 40.2180 -87.8110 119° Southeast 473 544 22,400 -2,047 Descending FlightAware ADS-B
Thu 01:27:11 AM 40.1770 -87.6980 115° Southeast 459 528 21,000 -1,553 Descending FlightAware ADS-B
Thu 01:27:52 AM 40.1420 -87.5960 114° Southeast 449 517 20,200 -2,077 Descending FlightAware ADS-B
Thu 01:28:29 AM 40.1160 -87.5010 110° East 460 529 18,300 -2,325 Descending FlightAware ADS-B
Thu 01:29:12 AM 40.0790 -87.3970 115° Southeast 441 507 17,100 -1,814 Descending FlightAware ADS-B
Thu 01:29:55 AM 40.0340 -87.2980 121° Southeast 428 493 15,700 -1,782 Descending FlightAware ADS-B
Thu 01:30:53 AM 39.9710 -87.1760 124° Southeast 409 471 14,100 -1,469 Descending FlightAware ADS-B
Thu 01:31:33 AM 39.9290 -87.0960 124° Southeast 388 447 13,300 -867 Descending FlightAware ADS-B
Thu 01:32:16 AM 39.8870 -87.0130 123° Southeast 390 449 12,900 -714 Descending FlightAware ADS-B
Thu 01:32:57 AM 39.8590 -86.9230 112° Southeast 392 451 12,300 -867 Descending FlightAware ADS-B
Thu 01:33:39 AM 39.8500 -86.8280 97° East 372 428 11,700 -929 Descending FlightAware ADS-B
Thu 01:34:21 AM 39.8490 -86.7370 91° East 347 399 11,000 -940 Descending FlightAware ADS-B
Thu 01:35:02 AM 39.8470 -86.6540 92° East 330 380 10,400 -1,200 Descending FlightAware ADS-B
Thu 01:35:46 AM 39.8460 -86.5670 91° East 325 374 9,300 -1,583 Descending FlightAware ADS-B
Thu 01:36:14 AM 39.8450 -86.5130 91° East 321 369 8,500 -1,857 Descending FlightAware ADS-B
Thu 01:36:28 AM 39.8440 -86.4840 93° East 320 368 8,000 -2,143 Descending FlightAware ADS-B
Thu 01:36:56 AM 39.8430 -86.4320 91° East 318 366 7,000 -2,111 Descending FlightAware ADS-B
Thu 01:37:22 AM 39.8420 -86.3820 91° East 324 373 6,100 -1,500 Descending FlightAware ADS-B
Thu 01:37:52 AM 39.8430 -86.3240 89° East 312 359 5,600 -1,200 Descending FlightAware ADS-B
Thu 01:38:22 AM 39.8390 -86.2700 95° East 290 334 4,900 -1,286 Descending FlightAware ADS-B
Thu 01:38:34 AM 39.8370 -86.2500 97° East 283 326 4,700 -1,071 Descending FlightAware ADS-B
Thu 01:38:50 AM 39.8420 -86.2220 77° East 268 308 4,400 -889 Descending FlightAware ADS-B
Thu 01:39:01 AM 39.8440 -86.2080 79° East 265 305 4,300 -1,000 Descending FlightAware ADS-B
Thu 01:39:32 AM 39.8270 -86.1700 120° Southeast 211 243 3,700 -1,091 Descending FlightAware ADS-B
Thu 01:39:45 AM 39.8160 -86.1660 164° South 181 208 3,500 -1,053 Descending FlightAware ADS-B
Thu 01:40:29 AM 39.7910 -86.1880 214° Southwest 144 166 2,700 -857 Descending FlightAware ADS-B
Thu 01:40:41 AM 39.7860 -86.1950 227° Southwest 143 165 2,700 -300 Level FlightAware ADS-B
Thu 01:41:09 AM 39.7730 -86.2110 223° Southwest 119 137 2,500 -545 Descending FlightAware ADS-B
Thu 01:41:25 AM 39.7670 -86.2190 226° Southwest 121 139 2,300 -667 Descending FlightAware ADS-B
Thu 01:41:54 AM 39.7560 -86.2340 226° Southwest 124 143 2,000 -643 Descending FlightAware ADS-B
Thu 01:42:21 AM 39.7440 -86.2490 224° Southwest 130 150 1,700 -615 Descending FlightAware ADS-B
Thu 01:42:33 AM 39.7390 -86.2550 223° Southwest 132 152 1,600 -600 Descending FlightAware ADS-B
Thu 01:43:01 AM 39.7260 -86.2710 223° Southwest 134 154 1,300 -643 Descending FlightAware ADS-B
Thu 01:43:30 AM 39.7140 -86.2870 226° Southwest 120 138 -2,690 Descending FlightAware ADS-B
Thu 01:43:38 AM 39.7110 -86.2910 226° Southwest 86 99  Level FlightAware ADS-B
Thu 01:47:01 AM 39.7120 -86.2870 72° East 20 23  Level FlightAware ADS-B
Thu 01:48:09 AM 39.7160 -86.2810 49° Northeast 15 17  Level FlightAware ADS-B
Thu 01:48:48 AM 39.7170 -86.2800 38° Northeast 10 12  Level FlightAware ADS-B
Thu 01:49:33 AM 39.7160 -86.2790 142° Southeast 17 20  Level FlightAware ADS-B

Login

Don't have an account? Register now (free) for customized features, flight alerts, and more!